createdAt,value
2023-04-28T00:00:58.622Z,3.71
2023-04-28T00:03:28.514Z,3.65
2023-04-28T00:05:57.719Z,3.60
2023-04-28T00:08:27.335Z,3.53
2023-04-28T00:10:55.812Z,3.47
2023-04-28T00:13:23.979Z,3.39
2023-04-28T00:15:53.138Z,3.33
2023-04-28T00:18:22.096Z,3.27
2023-04-28T00:20:50.418Z,3.20
2023-04-28T00:23:18.978Z,3.15
2023-04-28T00:25:54.812Z,3.10
2023-04-28T00:28:33.405Z,3.04
2023-04-28T00:31:02.766Z,2.99
2023-04-28T00:33:31.009Z,2.95
2023-04-28T00:36:00.882Z,2.91
2023-04-28T00:38:29.042Z,2.86
2023-04-28T00:40:57.352Z,2.80
2023-04-28T00:43:25.470Z,2.76
2023-04-28T00:45:53.968Z,2.71
2023-04-28T00:48:23.132Z,2.64
2023-04-28T00:50:52.051Z,2.57
2023-04-28T00:53:20.492Z,2.51
2023-04-28T00:55:50.487Z,2.44
2023-04-28T00:58:19.526Z,2.39
2023-04-28T01:00:47.543Z,2.34
2023-04-28T01:03:16.106Z,2.29
2023-04-28T01:05:44.838Z,2.25
2023-04-28T01:08:13.027Z,2.20
2023-04-28T01:10:45.327Z,2.16
2023-04-28T01:13:19.705Z,2.11
2023-04-28T01:15:47.807Z,2.06
2023-04-28T01:18:16.288Z,2.00
2023-04-28T01:20:44.762Z,1.94
2023-04-28T01:23:13.973Z,1.89
2023-04-28T01:25:43.945Z,1.84
2023-04-28T01:28:12.688Z,1.78
2023-04-28T01:30:41.246Z,1.77
2023-04-28T01:33:10.288Z,1.74
2023-04-28T01:35:38.459Z,1.72
2023-04-28T01:38:06.619Z,1.68
2023-04-28T01:40:34.671Z,1.64
2023-04-28T01:43:02.750Z,1.61
2023-04-28T01:45:31.459Z,1.57
2023-04-28T01:48:00.766Z,1.51
2023-04-28T01:50:28.884Z,1.46
2023-04-28T01:52:57.683Z,1.42
2023-04-28T01:55:26.147Z,1.38
2023-04-28T01:57:55.056Z,1.34
2023-04-28T02:00:23.441Z,1.32
2023-04-28T02:02:52.032Z,1.29
2023-04-28T02:05:20.268Z,1.27
2023-04-28T02:07:49.031Z,1.25
2023-04-28T02:10:17.207Z,1.22
2023-04-28T02:12:45.604Z,1.18
2023-04-28T02:15:14.178Z,1.14
2023-04-28T02:17:42.263Z,1.11
2023-04-28T02:20:10.921Z,1.08
2023-04-28T02:22:39.060Z,1.05
2023-04-28T02:25:08.641Z,1.04
2023-04-28T02:27:39.001Z,1.01
2023-04-28T02:30:08.079Z,0.98
2023-04-28T02:32:36.836Z,0.96
2023-04-28T02:35:05.156Z,0.93
2023-04-28T02:37:33.378Z,0.88
2023-04-28T02:40:01.467Z,0.85
2023-04-28T02:42:29.492Z,0.82
2023-04-28T02:44:57.797Z,0.81
2023-04-28T02:47:25.818Z,0.79
2023-04-28T02:49:54.188Z,0.79
2023-04-28T02:52:23.340Z,0.79
2023-04-28T02:54:54.703Z,0.77
2023-04-28T02:57:23.013Z,0.74
2023-04-28T02:59:51.056Z,0.71
2023-04-28T03:02:20.995Z,0.68
2023-04-28T03:04:49.120Z,0.64
2023-04-28T03:07:17.178Z,0.61
2023-04-28T03:09:46.666Z,0.61
2023-04-28T03:12:15.037Z,0.61
2023-04-28T03:14:43.086Z,0.57
2023-04-28T03:17:11.844Z,0.53
2023-04-28T03:19:40.396Z,0.54
2023-04-28T03:22:08.577Z,0.51
2023-04-28T03:24:36.598Z,0.47
2023-04-28T03:27:05.935Z,0.46
2023-04-28T03:29:34.292Z,0.44
2023-04-28T03:32:02.459Z,0.45
2023-04-28T03:34:31.168Z,0.46
2023-04-28T03:36:59.512Z,0.47
2023-04-28T03:39:30.101Z,0.48
2023-04-28T03:41:58.169Z,0.47
2023-04-28T03:44:44.901Z,0.48
2023-04-28T03:47:13.965Z,0.49
2023-04-28T03:49:42.629Z,0.48
2023-04-28T03:52:11.146Z,0.50
2023-04-28T03:54:39.350Z,0.55
2023-04-28T03:57:07.808Z,0.57
2023-04-28T03:59:35.979Z,0.61
2023-04-28T04:02:04.615Z,0.65
2023-04-28T04:04:33.252Z,0.70
2023-04-28T04:07:02.608Z,0.72
2023-04-28T04:09:31.807Z,0.76
2023-04-28T04:12:01.385Z,0.78
2023-04-28T04:14:29.542Z,0.82
2023-04-28T04:16:57.742Z,0.87
2023-04-28T04:19:26.706Z,0.91
2023-04-28T04:21:56.740Z,0.98
2023-04-28T04:24:24.923Z,1.04
2023-04-28T04:26:53.273Z,1.08
2023-04-28T04:29:35.561Z,1.14
2023-04-28T04:32:08.475Z,1.21
2023-04-28T04:34:36.724Z,1.25
2023-04-28T04:37:05.068Z,1.31
2023-04-28T04:39:33.407Z,1.37
2023-04-28T04:42:10.461Z,1.45
2023-04-28T04:45:01.779Z,1.55
2023-04-28T04:47:33.019Z,1.62
2023-04-28T04:50:01.541Z,1.68
2023-04-28T04:52:33.254Z,1.76
2023-04-28T04:55:02.601Z,1.83
2023-04-28T04:57:33.192Z,1.89
2023-04-28T05:00:11.749Z,1.97
2023-04-28T05:02:40.272Z,2.04
2023-04-28T05:05:20.375Z,2.13
2023-04-28T05:08:10.774Z,2.23
2023-04-28T05:10:39.281Z,2.31
2023-04-28T05:13:08.208Z,2.43
2023-04-28T05:15:37.067Z,2.54
2023-04-28T05:18:25.760Z,2.66
2023-04-28T05:20:54.509Z,2.76
2023-04-28T05:23:23.545Z,2.86
2023-04-28T05:25:52.617Z,2.96
2023-04-28T05:28:22.246Z,3.08
2023-04-28T05:30:51.759Z,3.18
2023-04-28T05:33:20.213Z,3.30
2023-04-28T05:35:49.037Z,3.42
2023-04-28T05:38:18.028Z,3.54
2023-04-28T05:40:46.647Z,3.67
2023-04-28T05:43:14.918Z,3.80
2023-04-28T05:45:43.533Z,3.94
2023-04-28T05:48:12.275Z,4.07
2023-04-28T05:50:40.641Z,4.21
2023-04-28T05:53:11.705Z,4.34
2023-04-28T05:55:40.518Z,4.47
2023-04-28T05:58:09.268Z,4.58
2023-04-28T06:00:38.175Z,4.70
2023-04-28T06:03:08.977Z,4.88
2023-04-28T06:05:38.001Z,4.99
2023-04-28T06:08:08.526Z,5.08
2023-04-28T06:10:38.945Z,5.20
2023-04-28T06:13:07.370Z,5.32
2023-04-28T06:15:36.662Z,5.43
2023-04-28T06:18:08.323Z,5.57
2023-04-28T06:20:39.880Z,5.68
2023-04-28T06:23:11.340Z,5.79
2023-04-28T06:25:45.334Z,5.91
2023-04-28T06:28:15.646Z,6.05
2023-04-28T06:30:45.992Z,6.16
2023-04-28T06:33:15.724Z,6.31
2023-04-28T06:35:44.508Z,6.42
2023-04-28T06:38:13.162Z,6.55
2023-04-28T06:40:41.551Z,6.66
2023-04-28T06:43:09.929Z,6.78
2023-04-28T06:45:46.076Z,6.94
2023-04-28T06:48:14.378Z,7.04
2023-04-28T06:50:45.438Z,7.15
2023-04-28T06:53:14.191Z,7.28
2023-04-28T06:55:43.309Z,7.41
2023-04-28T06:58:12.754Z,7.55
2023-04-28T07:00:43.536Z,7.68
2023-04-28T07:03:12.166Z,7.76
2023-04-28T07:05:41.725Z,7.88
2023-04-28T07:08:10.195Z,8.05
2023-04-28T07:10:38.692Z,8.23
2023-04-28T07:13:09.615Z,8.34
2023-04-28T07:15:37.944Z,8.44
2023-04-28T07:18:06.882Z,8.56
2023-04-28T07:20:35.011Z,8.69
2023-04-28T07:23:06.697Z,8.80
2023-04-28T07:25:35.514Z,8.90
2023-04-28T07:28:04.090Z,8.94
2023-04-28T07:30:33.120Z,9.01
2023-04-28T07:33:01.714Z,9.11
2023-04-28T07:35:31.003Z,9.19
2023-04-28T07:38:00.475Z,9.20
2023-04-28T07:40:29.674Z,9.22
2023-04-28T07:42:58.020Z,9.27
2023-04-28T07:45:26.361Z,9.31
2023-04-28T07:47:54.554Z,9.37
2023-04-28T07:50:24.280Z,9.42
2023-04-28T07:52:52.597Z,9.41
2023-04-28T07:55:21.089Z,9.38
2023-04-28T07:57:49.673Z,9.50
2023-04-28T08:00:18.739Z,9.61
2023-04-28T08:02:47.125Z,9.65
2023-04-28T08:05:17.273Z,9.77
2023-04-28T08:07:45.721Z,9.86
2023-04-28T08:10:14.120Z,9.77
2023-04-28T08:12:42.843Z,9.84
2023-04-28T08:15:11.892Z,9.94
2023-04-28T08:17:41.719Z,10.03
2023-04-28T08:20:10.958Z,10.02
2023-04-28T08:22:39.140Z,10.15
2023-04-28T08:25:08.145Z,10.31
2023-04-28T08:27:38.268Z,10.29
2023-04-28T08:30:11.046Z,10.24
2023-04-28T08:32:39.568Z,10.47
2023-04-28T08:35:09.622Z,10.56
2023-04-28T08:37:37.907Z,10.67
2023-04-28T08:40:10.229Z,10.76
2023-04-28T08:42:38.678Z,10.79
2023-04-28T08:45:07.357Z,10.69
2023-04-28T08:47:39.761Z,10.67
2023-04-28T08:50:09.072Z,10.85
2023-04-28T08:52:41.184Z,11.09
2023-04-28T08:55:13.265Z,11.17
2023-04-28T08:57:52.485Z,11.20
2023-04-28T09:00:20.967Z,11.21
2023-04-28T09:02:49.302Z,11.08
2023-04-28T09:05:17.665Z,11.01
2023-04-28T09:07:46.957Z,10.92
2023-04-28T09:10:26.673Z,10.98
2023-04-28T09:12:58.770Z,11.18
2023-04-28T09:15:34.682Z,11.39
2023-04-28T09:18:05.890Z,11.39
2023-04-28T09:20:40.369Z,11.63
2023-04-28T09:23:24.306Z,11.64
2023-04-28T09:25:57.665Z,11.40
2023-04-28T09:28:26.436Z,11.25
2023-04-28T09:30:56.089Z,11.41
2023-04-28T09:33:25.257Z,11.49
2023-04-28T09:35:54.833Z,11.80
2023-04-28T09:38:24.267Z,11.75
2023-04-28T09:41:01.238Z,11.83
2023-04-28T09:43:34.640Z,11.77
2023-04-28T09:46:06.487Z,11.99
2023-04-28T09:48:39.426Z,12.41
2023-04-28T09:51:09.896Z,12.51
2023-04-28T09:53:40.220Z,12.76
2023-04-28T09:56:08.936Z,13.13
2023-04-28T09:58:41.137Z,13.57
2023-04-28T10:01:14.406Z,14.04
2023-04-28T10:03:43.232Z,14.32
2023-04-28T10:06:11.658Z,14.48
2023-04-28T10:08:40.678Z,14.29
2023-04-28T10:11:21.059Z,14.18
2023-04-28T10:13:54.489Z,14.61
2023-04-28T10:16:24.012Z,14.66
2023-04-28T10:18:54.312Z,14.03
2023-04-28T10:21:24.667Z,14.15
2023-04-28T10:24:27.125Z,14.12
2023-04-28T10:27:09.557Z,14.63
2023-04-28T10:29:38.140Z,15.24
2023-04-28T10:32:24.078Z,15.52
2023-04-28T10:34:52.871Z,15.29
2023-04-28T10:37:43.438Z,15.80
2023-04-28T10:40:34.613Z,16.13
2023-04-28T10:43:04.453Z,16.03
2023-04-28T10:45:48.810Z,15.74
2023-04-28T10:48:18.504Z,15.59
2023-04-28T10:51:05.649Z,16.16
2023-04-28T10:53:42.807Z,16.07
2023-04-28T10:56:23.404Z,16.71
2023-04-28T10:58:59.092Z,17.44
2023-04-28T11:01:28.422Z,17.09
2023-04-28T11:04:17.129Z,16.62
2023-04-28T11:06:47.085Z,16.41
2023-04-28T11:09:19.612Z,16.37
2023-04-28T11:11:59.952Z,17.50
2023-04-28T11:14:33.964Z,17.18
2023-04-28T11:17:07.634Z,16.49
2023-04-28T11:19:38.150Z,16.95
2023-04-28T11:22:19.645Z,17.21
2023-04-28T11:25:04.076Z,18.03
2023-04-28T11:27:33.867Z,18.38
2023-04-28T11:30:02.261Z,18.30
2023-04-28T11:32:35.485Z,18.57
2023-04-28T11:35:10.418Z,17.19
2023-04-28T11:38:04.406Z,17.54
2023-04-28T11:40:32.653Z,18.52
2023-04-28T11:43:05.050Z,17.92
2023-04-28T11:45:34.003Z,18.12
2023-04-28T11:48:20.624Z,18.67
2023-04-28T11:50:48.901Z,19.24
2023-04-28T11:53:17.530Z,19.14
2023-04-28T11:55:45.910Z,18.52
2023-04-28T11:58:22.582Z,19.41
2023-04-28T12:01:14.384Z,19.37
2023-04-28T12:03:44.235Z,19.63
2023-04-28T12:06:18.096Z,19.42
2023-04-28T12:08:46.864Z,19.61
2023-04-28T12:11:18.354Z,19.21
2023-04-28T12:14:08.524Z,19.66
2023-04-28T12:16:39.807Z,20.51
2023-04-28T12:19:10.568Z,20.65
2023-04-28T12:21:40.612Z,20.34
2023-04-28T12:24:25.676Z,20.40
2023-04-28T12:26:57.666Z,20.72
2023-04-28T12:29:40.017Z,20.21
2023-04-28T12:32:11.455Z,20.17
2023-04-28T12:34:43.684Z,20.30
2023-04-28T12:37:12.539Z,19.96
2023-04-28T12:39:44.186Z,19.77
2023-04-28T12:42:13.304Z,20.23
2023-04-28T12:44:43.148Z,20.16
2023-04-28T12:47:11.554Z,20.28
2023-04-28T12:49:40.143Z,21.27
2023-04-28T12:52:09.694Z,21.43
2023-04-28T12:54:38.156Z,21.35
2023-04-28T12:57:06.405Z,21.37
2023-04-28T12:59:35.105Z,21.84
2023-04-28T13:02:03.508Z,21.91
2023-04-28T13:04:32.827Z,21.60
2023-04-28T13:07:01.736Z,21.26
2023-04-28T13:09:30.545Z,21.40
2023-04-28T13:11:59.466Z,21.54
2023-04-28T13:14:28.738Z,21.28
2023-04-28T13:16:59.056Z,21.17
2023-04-28T13:19:28.083Z,21.01
2023-04-28T13:21:57.005Z,21.83
2023-04-28T13:24:25.326Z,22.71
2023-04-28T13:26:54.134Z,21.44
2023-04-28T13:29:22.900Z,21.09
2023-04-28T13:31:51.321Z,21.57
2023-04-28T13:34:19.618Z,21.45
2023-04-28T13:36:51.107Z,20.75
2023-04-28T13:39:20.417Z,20.88
2023-04-28T13:41:49.577Z,19.84
2023-04-28T13:44:17.979Z,20.60
2023-04-28T13:46:49.298Z,20.82
2023-04-28T13:49:18.152Z,19.93
2023-04-28T13:51:47.861Z,20.09
2023-04-28T13:54:16.396Z,20.63
2023-04-28T13:56:44.538Z,20.74
2023-04-28T13:59:13.878Z,20.66
2023-04-28T14:01:43.492Z,21.43
2023-04-28T14:04:13.266Z,21.39
2023-04-28T14:06:42.581Z,22.55
2023-04-28T14:09:15.199Z,22.86
2023-04-28T14:11:46.637Z,22.44
2023-04-28T14:14:19.782Z,22.36
2023-04-28T14:17:04.452Z,22.17
2023-04-28T14:19:49.966Z,22.76
2023-04-28T14:22:18.452Z,23.98
2023-04-28T14:24:47.012Z,23.86
2023-04-28T14:27:17.817Z,22.77
2023-04-28T14:29:48.411Z,22.93
2023-04-28T14:32:20.944Z,23.13
2023-04-28T14:34:50.377Z,22.84
2023-04-28T14:37:18.882Z,22.55
2023-04-28T14:39:47.251Z,23.83
2023-04-28T14:42:15.510Z,23.41
2023-04-28T14:44:49.669Z,22.77
2023-04-28T14:47:18.297Z,22.16
2023-04-28T14:49:49.163Z,21.15
2023-04-28T14:52:18.124Z,21.64
2023-04-28T14:54:48.196Z,22.08
2023-04-28T14:57:16.619Z,22.33
2023-04-28T14:59:44.736Z,22.18
2023-04-28T15:02:15.587Z,22.14
2023-04-28T15:04:44.525Z,22.35
2023-04-28T15:07:13.767Z,21.77
2023-04-28T15:09:43.674Z,22.57
2023-04-28T15:12:11.732Z,23.23
2023-04-28T15:14:39.797Z,23.35
2023-04-28T15:17:10.159Z,23.77
2023-04-28T15:19:39.054Z,23.92
2023-04-28T15:22:07.341Z,23.53
2023-04-28T15:24:35.613Z,24.30
2023-04-28T15:27:04.210Z,24.23
2023-04-28T15:29:35.383Z,23.89
2023-04-28T15:32:03.689Z,23.82
2023-04-28T15:34:31.881Z,23.89
2023-04-28T15:37:01.085Z,25.01
2023-04-28T15:39:29.268Z,24.84
2023-04-28T15:41:59.837Z,25.02
2023-04-28T15:44:30.399Z,24.76
2023-04-28T15:47:03.932Z,25.00
2023-04-28T15:49:32.932Z,24.65
2023-04-28T15:52:01.539Z,24.51
2023-04-28T15:54:29.707Z,24.14
2023-04-28T15:56:57.988Z,24.10
2023-04-28T15:59:27.331Z,24.60
2023-04-28T16:01:56.305Z,24.17
2023-04-28T16:04:25.061Z,24.57
2023-04-28T16:06:55.846Z,23.40
2023-04-28T16:09:24.362Z,23.18
2023-04-28T16:11:53.036Z,22.43
2023-04-28T16:14:21.156Z,22.58
2023-04-28T16:16:50.487Z,22.95
2023-04-28T16:19:21.468Z,21.99
2023-04-28T16:21:49.776Z,20.83
2023-04-28T16:24:19.911Z,21.73
2023-04-28T16:26:50.360Z,21.74
2023-04-28T16:29:18.526Z,21.41
2023-04-28T16:31:47.821Z,21.07
2023-04-28T16:34:17.297Z,20.74
2023-04-28T16:36:45.861Z,20.06
2023-04-28T16:39:14.330Z,19.96
2023-04-28T16:41:42.597Z,19.57
2023-04-28T16:44:11.294Z,19.99
2023-04-28T16:46:40.885Z,20.38
2023-04-28T16:49:09.462Z,19.74
2023-04-28T16:51:38.387Z,19.02
2023-04-28T16:54:07.262Z,18.41
2023-04-28T16:56:39.136Z,18.03
2023-04-28T16:59:09.664Z,17.50
2023-04-28T17:01:38.133Z,17.03
2023-04-28T17:04:07.904Z,16.33
2023-04-28T17:06:37.487Z,16.02
2023-04-28T17:09:13.234Z,15.77
2023-04-28T17:11:43.975Z,15.17
2023-04-28T17:14:15.984Z,14.83
2023-04-28T17:16:49.536Z,14.25
2023-04-28T17:19:20.853Z,13.81
2023-04-28T17:21:54.618Z,13.63
2023-04-28T17:24:31.601Z,13.37
2023-04-28T17:27:03.536Z,13.13
2023-04-28T17:29:32.483Z,12.95
2023-04-28T17:32:00.782Z,12.77
2023-04-28T17:34:29.460Z,12.61
2023-04-28T17:36:57.784Z,12.43
2023-04-28T17:39:26.753Z,12.31
2023-04-28T17:41:58.057Z,12.17
2023-04-28T17:44:26.915Z,12.05
2023-04-28T17:46:56.501Z,11.95
2023-04-28T17:49:25.220Z,11.81
2023-04-28T17:51:53.373Z,11.64
2023-04-28T17:54:21.450Z,11.53
2023-04-28T17:56:51.827Z,11.42
2023-04-28T17:59:21.025Z,11.28
2023-04-28T18:01:49.185Z,11.15
2023-04-28T18:04:17.971Z,11.02
2023-04-28T18:06:46.822Z,10.88
2023-04-28T18:09:15.621Z,10.77
2023-04-28T18:11:43.774Z,10.66
2023-04-28T18:14:15.539Z,10.55
2023-04-28T18:16:48.132Z,10.45
2023-04-28T18:19:17.696Z,10.35
2023-04-28T18:21:45.981Z,10.28
2023-04-28T18:24:15.156Z,10.21
2023-04-28T18:26:43.276Z,10.14
2023-04-28T18:29:12.068Z,10.10
2023-04-28T18:31:42.082Z,10.05
2023-04-28T18:34:11.054Z,10.02
2023-04-28T18:36:39.660Z,9.97
2023-04-28T18:39:10.781Z,9.92
2023-04-28T18:41:40.325Z,9.87
2023-04-28T18:44:08.652Z,9.82
2023-04-28T18:46:37.053Z,9.78
2023-04-28T18:49:06.870Z,9.72
2023-04-28T18:51:35.897Z,9.69
2023-04-28T18:54:08.604Z,9.66
2023-04-28T18:56:38.118Z,9.59
2023-04-28T18:59:06.568Z,9.52
2023-04-28T19:01:35.059Z,9.44
2023-04-28T19:04:04.431Z,9.35
2023-04-28T19:06:32.796Z,9.25
2023-04-28T19:09:01.674Z,9.15
2023-04-28T19:11:31.176Z,9.05
2023-04-28T19:13:59.568Z,8.94
2023-04-28T19:16:27.883Z,8.84
2023-04-28T19:18:59.197Z,8.72
2023-04-28T19:21:29.528Z,8.62
2023-04-28T19:23:57.886Z,8.48
2023-04-28T19:26:27.599Z,8.34
2023-04-28T19:28:56.112Z,8.21
2023-04-28T19:31:26.937Z,8.04
2023-04-28T19:33:55.171Z,7.94
2023-04-28T19:36:25.161Z,7.81
2023-04-28T19:38:53.225Z,7.69
2023-04-28T19:41:21.975Z,7.53
2023-04-28T19:43:50.330Z,7.44
2023-04-28T19:46:20.354Z,7.33
2023-04-28T19:48:49.242Z,7.23
2023-04-28T19:51:17.660Z,7.15
2023-04-28T19:53:47.201Z,7.03
2023-04-28T19:56:15.517Z,6.97
2023-04-28T19:58:43.673Z,6.89
2023-04-28T20:01:11.706Z,6.81
2023-04-28T20:03:39.877Z,6.75
2023-04-28T20:06:08.099Z,6.67
2023-04-28T20:08:36.137Z,6.60
2023-04-28T20:11:07.889Z,6.52
2023-04-28T20:13:36.261Z,6.46
2023-04-28T20:16:05.710Z,6.41
2023-04-28T20:18:35.966Z,6.36
2023-04-28T20:21:04.339Z,6.32
2023-04-28T20:23:32.457Z,6.28
2023-04-28T20:26:00.546Z,6.23
2023-04-28T20:28:29.720Z,6.17
2023-04-28T20:30:59.042Z,6.12
2023-04-28T20:33:27.141Z,6.06
2023-04-28T20:35:55.220Z,6.00
2023-04-28T20:38:23.941Z,5.94
2023-04-28T20:40:52.397Z,5.87
2023-04-28T20:43:22.078Z,5.83
2023-04-28T20:45:51.535Z,5.76
2023-04-28T20:48:23.027Z,5.70
2023-04-28T20:50:53.274Z,5.68
2023-04-28T20:53:22.279Z,5.64
2023-04-28T20:55:50.844Z,5.60
2023-04-28T20:58:19.075Z,5.53
2023-04-28T21:00:47.262Z,5.47
2023-04-28T21:03:15.652Z,5.44
2023-04-28T21:05:46.596Z,5.39
2023-04-28T21:08:15.002Z,5.33
2023-04-28T21:10:42.967Z,5.26
2023-04-28T21:13:11.279Z,5.17
2023-04-28T21:15:41.541Z,5.11
2023-04-28T21:18:09.790Z,5.05
2023-04-28T21:20:38.619Z,5.00
2023-04-28T21:23:10.030Z,4.96
2023-04-28T21:25:38.160Z,4.92
2023-04-28T21:28:06.206Z,4.88
2023-04-28T21:30:34.249Z,4.84
2023-04-28T21:33:02.678Z,4.80
2023-04-28T21:35:30.839Z,4.75
2023-04-28T21:37:58.975Z,4.71
2023-04-28T21:40:27.370Z,4.66
2023-04-28T21:42:55.747Z,4.62
2023-04-28T21:45:23.662Z,4.56
2023-04-28T21:47:51.815Z,4.51
2023-04-28T21:50:21.096Z,4.47
2023-04-28T21:52:50.071Z,4.43
2023-04-28T21:55:18.395Z,4.39
2023-04-28T21:57:46.759Z,4.36
2023-04-28T22:00:15.076Z,4.33
2023-04-28T22:02:43.242Z,4.28
2023-04-28T22:05:13.995Z,4.24
2023-04-28T22:07:42.275Z,4.19
2023-04-28T22:10:12.672Z,4.16
2023-04-28T22:12:40.605Z,4.14
2023-04-28T22:15:09.592Z,4.12
2023-04-28T22:17:38.863Z,4.11
2023-04-28T22:20:08.029Z,4.11
2023-04-28T22:22:36.032Z,4.10
2023-04-28T22:25:04.592Z,4.11
2023-04-28T22:27:32.751Z,4.09
2023-04-28T22:30:00.974Z,4.08
2023-04-28T22:32:29.540Z,4.05
2023-04-28T22:34:58.457Z,4.01
2023-04-28T22:37:26.904Z,3.99
2023-04-28T22:39:55.258Z,3.97
2023-04-28T22:42:23.414Z,3.94
2023-04-28T22:44:51.458Z,3.90
2023-04-28T22:47:20.970Z,3.84
2023-04-28T22:49:50.049Z,3.80
2023-04-28T22:52:20.470Z,3.73
2023-04-28T22:54:49.353Z,3.69
2023-04-28T22:57:17.565Z,3.66
2023-04-28T22:59:45.650Z,3.62
2023-04-28T23:02:13.967Z,3.60
2023-04-28T23:04:42.548Z,3.59
2023-04-28T23:07:11.039Z,3.58
2023-04-28T23:09:39.126Z,3.58
2023-04-28T23:12:07.998Z,3.56
2023-04-28T23:14:36.170Z,3.56
2023-04-28T23:17:04.261Z,3.56
2023-04-28T23:19:35.746Z,3.58
2023-04-28T23:22:03.817Z,3.59
2023-04-28T23:24:31.943Z,3.59
2023-04-28T23:27:00.001Z,3.60
2023-04-28T23:29:28.044Z,3.60
2023-04-28T23:31:57.138Z,3.59
2023-04-28T23:34:25.497Z,3.55
2023-04-28T23:36:53.557Z,3.53
2023-04-28T23:39:22.191Z,3.52
2023-04-28T23:41:51.178Z,3.50
2023-04-28T23:44:19.551Z,3.49
2023-04-28T23:46:49.269Z,3.48
2023-04-28T23:49:17.317Z,3.46
2023-04-28T23:51:45.291Z,3.48
2023-04-28T23:54:13.690Z,3.50
2023-04-28T23:56:41.814Z,3.50
2023-04-28T23:59:09.802Z,3.50
